createdAt,value
2018-06-17T00:01:33.970Z,15.56
2018-06-17T00:04:02.651Z,15.67
2018-06-17T00:06:31.441Z,15.61
2018-06-17T00:09:00.151Z,15.49
2018-06-17T00:11:28.756Z,15.41
2018-06-17T00:13:57.474Z,15.40
2018-06-17T00:16:26.399Z,15.45
2018-06-17T00:18:55.535Z,15.41
2018-06-17T00:21:24.272Z,15.36
2018-06-17T00:23:53.196Z,15.32
2018-06-17T00:26:21.900Z,15.29
2018-06-17T00:28:50.641Z,15.23
2018-06-17T00:31:19.576Z,15.18
2018-06-17T00:33:48.562Z,15.12
2018-06-17T00:36:17.241Z,15.39
2018-06-17T00:38:46.108Z,15.29
2018-06-17T00:41:14.912Z,15.15
2018-06-17T00:43:43.962Z,15.07
2018-06-17T00:46:12.838Z,15.02
2018-06-17T00:48:41.748Z,14.99
2018-06-17T00:51:10.648Z,14.98
2018-06-17T00:53:39.401Z,14.79
2018-06-17T00:56:08.215Z,14.72
2018-06-17T00:58:36.951Z,14.68
2018-06-17T01:01:05.620Z,14.61
2018-06-17T01:03:34.500Z,14.59
2018-06-17T01:06:03.374Z,14.64
2018-06-17T01:08:32.235Z,14.58
2018-06-17T01:11:01.346Z,14.58
2018-06-17T01:13:30.042Z,14.52
2018-06-17T01:15:58.953Z,14.45
2018-06-17T01:18:27.667Z,14.44
2018-06-17T01:20:56.488Z,14.35
2018-06-17T01:23:25.289Z,14.41
2018-06-17T01:25:54.130Z,14.36
2018-06-17T01:28:22.910Z,14.34
2018-06-17T01:30:51.665Z,14.38
2018-06-17T01:33:20.433Z,14.29
2018-06-17T01:35:49.375Z,14.21
2018-06-17T01:38:18.009Z,14.11
2018-06-17T01:40:47.095Z,14.05
2018-06-17T01:43:15.893Z,14.00
2018-06-17T01:45:44.722Z,13.97
2018-06-17T01:48:13.554Z,14.00
2018-06-17T01:50:42.373Z,14.05
2018-06-17T01:53:11.143Z,14.08
2018-06-17T01:55:40.005Z,14.15
2018-06-17T01:58:08.768Z,14.15
2018-06-17T02:00:37.736Z,14.15
2018-06-17T02:03:11.640Z,14.13
2018-06-17T02:07:51.673Z,14.12
2018-06-17T02:10:25.609Z,14.17
2018-06-17T02:12:54.394Z,14.13
2018-06-17T02:15:23.184Z,14.13
2018-06-17T02:17:51.926Z,14.00
2018-06-17T02:20:20.586Z,13.88
2018-06-17T02:22:49.632Z,13.96
2018-06-17T02:25:18.392Z,13.96
2018-06-17T02:27:47.114Z,13.97
2018-06-17T02:30:16.238Z,13.95
2018-06-17T02:32:44.965Z,13.99
2018-06-17T02:35:13.722Z,14.06
2018-06-17T02:37:42.321Z,14.13
2018-06-17T02:40:11.052Z,14.17
2018-06-17T02:42:39.772Z,14.26
2018-06-17T02:45:13.808Z,14.27
2018-06-17T02:47:47.709Z,14.31
2018-06-17T02:50:21.604Z,14.35
2018-06-17T02:52:55.597Z,14.34
2018-06-17T02:55:24.520Z,14.53
2018-06-17T02:57:53.458Z,14.48
2018-06-17T03:00:22.117Z,14.45
2018-06-17T03:02:51.049Z,14.45
2018-06-17T03:05:20.215Z,14.53
2018-06-17T03:07:49.180Z,14.65
2018-06-17T03:10:18.098Z,14.68
2018-06-17T03:12:46.925Z,14.74
2018-06-17T03:15:15.693Z,14.75
2018-06-17T03:17:44.536Z,14.79
2018-06-17T03:20:13.362Z,14.81
2018-06-17T03:22:42.237Z,14.84
2018-06-17T03:25:16.346Z,14.88
2018-06-17T03:27:50.297Z,14.94
2018-06-17T03:30:25.096Z,15.01
2018-06-17T03:32:58.949Z,15.09
2018-06-17T03:35:32.871Z,15.17
2018-06-17T03:38:02.089Z,15.19
2018-06-17T03:40:30.768Z,15.20
2018-06-17T03:42:59.609Z,15.21
2018-06-17T03:45:28.369Z,15.45
2018-06-17T03:47:57.035Z,15.54
2018-06-17T03:50:26.053Z,15.53
2018-06-17T03:52:54.895Z,15.54
2018-06-17T03:55:23.776Z,15.54
2018-06-17T03:57:52.736Z,15.58
2018-06-17T04:00:21.617Z,15.51
2018-06-17T04:02:50.552Z,15.52
2018-06-17T04:05:24.692Z,15.40
2018-06-17T04:07:53.445Z,15.55
2018-06-17T04:10:22.334Z,15.72
2018-06-17T04:12:51.197Z,15.83
2018-06-17T04:15:20.137Z,15.87
2018-06-17T04:17:48.920Z,15.97
2018-06-17T04:20:17.460Z,16.04
2018-06-17T04:22:45.981Z,16.18
2018-06-17T04:25:14.475Z,16.25
2018-06-17T04:27:43.026Z,16.27
2018-06-17T04:30:11.626Z,16.54
2018-06-17T04:32:41.274Z,16.52
2018-06-17T04:35:09.862Z,16.74
2018-06-17T04:37:38.383Z,16.89
2018-06-17T04:40:06.970Z,17.05
2018-06-17T04:42:35.525Z,17.29
2018-06-17T04:45:04.026Z,17.80
2018-06-17T04:47:32.589Z,16.11
2018-06-17T04:50:01.169Z,18.12
2018-06-17T04:52:29.673Z,18.26
2018-06-17T04:54:58.182Z,18.39
2018-06-17T04:57:26.724Z,18.85
2018-06-17T04:59:55.305Z,19.14
2018-06-17T05:02:23.930Z,20.80
2018-06-17T05:04:52.618Z,21.10
2018-06-17T05:07:21.125Z,20.92
2018-06-17T05:09:49.653Z,21.38
2018-06-17T05:12:18.218Z,21.83
2018-06-17T05:14:46.871Z,21.88
2018-06-17T05:17:15.410Z,23.86
2018-06-17T05:19:44.264Z,23.90
2018-06-17T05:22:13.287Z,23.14
2018-06-17T05:24:41.812Z,23.47
2018-06-17T05:27:10.375Z,24.27
2018-06-17T05:29:38.956Z,24.83
2018-06-17T05:32:07.656Z,25.49
2018-06-17T05:34:36.234Z,26.09
2018-06-17T05:37:04.814Z,26.24
2018-06-17T05:39:33.362Z,26.35
2018-06-17T05:42:01.935Z,25.13
2018-06-17T05:44:30.476Z,25.20
2018-06-17T05:46:59.038Z,25.09
2018-06-17T05:49:27.597Z,26.25
2018-06-17T05:51:56.153Z,27.61
2018-06-17T05:54:24.703Z,28.23
2018-06-17T05:57:09.406Z,29.03
2018-06-17T05:59:43.743Z,30.34
2018-06-17T06:02:13.764Z,31.44
2018-06-17T06:07:37.387Z,27.14
2018-06-17T06:10:06.134Z,24.89
2018-06-17T06:12:34.699Z,24.50
2018-06-17T06:15:03.341Z,24.38
2018-06-17T06:17:31.925Z,26.69
2018-06-17T06:20:00.525Z,28.34
2018-06-17T06:22:29.108Z,27.26
2018-06-17T06:24:57.666Z,27.28
2018-06-17T06:27:26.218Z,29.95
2018-06-17T06:29:54.843Z,29.19
2018-06-17T06:32:23.488Z,29.05
2018-06-17T06:34:52.040Z,29.74
2018-06-17T06:37:20.656Z,31.59
2018-06-17T06:39:49.184Z,33.17
2018-06-17T06:42:17.772Z,34.62
2018-06-17T06:44:46.421Z,35.21
2018-06-17T06:47:15.018Z,35.08
2018-06-17T06:49:43.601Z,35.43
2018-06-17T06:52:12.210Z,35.54
2018-06-17T06:54:40.726Z,36.86
2018-06-17T06:57:09.529Z,35.61
2018-06-17T06:59:38.112Z,32.83
2018-06-17T07:02:17.866Z,31.52
2018-06-17T07:05:04.687Z,31.12
2018-06-17T07:07:45.975Z,30.77
2018-06-17T07:10:24.568Z,30.22
2018-06-17T07:12:54.009Z,30.06
2018-06-17T07:15:35.107Z,29.85
2018-06-17T07:18:15.764Z,29.53
2018-06-17T07:20:45.534Z,29.78
2018-06-17T07:23:15.337Z,32.09
2018-06-17T07:26:55.176Z,34.19
2018-06-17T07:29:36.592Z,34.16
2018-06-17T07:32:05.887Z,31.94
2018-06-17T07:34:35.265Z,30.73
2018-06-17T07:37:04.119Z,29.62
2018-06-17T07:41:41.629Z,28.88
2018-06-17T07:44:11.275Z,28.73
2018-06-17T07:46:39.820Z,29.60
2018-06-17T07:49:58.940Z,30.32
2018-06-17T07:52:38.936Z,29.73
2018-06-17T07:55:07.551Z,30.24
2018-06-17T07:57:36.094Z,30.06
2018-06-17T08:00:04.740Z,31.42
2018-06-17T08:02:33.281Z,32.49
2018-06-17T08:05:01.806Z,32.68
2018-06-17T08:07:30.376Z,32.22
2018-06-17T08:09:58.959Z,32.68
2018-06-17T08:12:27.463Z,32.76
2018-06-17T08:14:56.088Z,32.24
2018-06-17T08:17:24.686Z,33.28
2018-06-17T08:19:53.268Z,32.04
2018-06-17T08:22:21.767Z,31.17
2018-06-17T08:24:50.353Z,31.87
2018-06-17T08:27:19.358Z,31.53
2018-06-17T08:29:48.642Z,30.66
2018-06-17T08:32:21.395Z,30.13
2018-06-17T08:34:50.203Z,30.38
2018-06-17T08:37:18.712Z,31.10
2018-06-17T08:39:47.288Z,29.90
2018-06-17T08:42:15.975Z,29.83
2018-06-17T08:44:44.481Z,31.44
2018-06-17T08:47:13.293Z,31.63
2018-06-17T08:49:41.914Z,33.85
2018-06-17T08:52:10.737Z,33.11
2018-06-17T08:54:39.599Z,31.20
2018-06-17T08:57:08.588Z,30.62
2018-06-17T08:59:37.322Z,34.17
2018-06-17T09:02:06.379Z,35.44
2018-06-17T09:04:35.328Z,37.42
2018-06-17T09:07:04.220Z,38.17
2018-06-17T09:09:32.923Z,38.67
2018-06-17T09:12:01.938Z,39.46
2018-06-17T09:14:30.560Z,41.13
2018-06-17T09:16:59.111Z,39.84
2018-06-17T09:19:27.874Z,38.58
2018-06-17T09:21:56.783Z,38.40
2018-06-17T09:24:25.591Z,37.83
2018-06-17T09:26:54.203Z,36.98
2018-06-17T09:29:22.785Z,36.91
2018-06-17T09:31:51.451Z,35.64
2018-06-17T09:34:19.897Z,38.22
2018-06-17T09:36:48.425Z,39.50
2018-06-17T09:39:17.584Z,40.32
2018-06-17T09:41:46.751Z,39.56
2018-06-17T09:44:15.628Z,38.50
2018-06-17T09:46:44.193Z,38.86
2018-06-17T09:49:12.788Z,38.73
2018-06-17T09:51:41.300Z,39.58
2018-06-17T09:54:09.854Z,39.27
2018-06-17T09:56:38.353Z,39.95
2018-06-17T09:59:06.901Z,40.47
2018-06-17T10:01:35.505Z,38.11
2018-06-17T10:04:04.011Z,36.16
2018-06-17T10:06:32.565Z,36.46
2018-06-17T10:09:01.174Z,37.08
2018-06-17T10:11:29.724Z,36.89
2018-06-17T10:13:58.227Z,34.94
2018-06-17T10:16:26.796Z,37.15
2018-06-17T10:18:55.380Z,34.79
2018-06-17T10:21:24.640Z,36.17
2018-06-17T10:23:53.166Z,35.17
2018-06-17T10:26:21.679Z,34.41
2018-06-17T10:28:50.275Z,35.65
2018-06-17T10:31:18.865Z,36.43
2018-06-17T10:33:47.783Z,35.83
2018-06-17T10:36:16.404Z,36.57
2018-06-17T10:38:45.037Z,35.27
2018-06-17T10:41:13.569Z,33.84
2018-06-17T10:43:42.083Z,34.07
2018-06-17T10:46:10.610Z,33.53
2018-06-17T10:48:39.131Z,33.86
2018-06-17T10:51:07.677Z,33.35
2018-06-17T10:53:39.026Z,32.48
2018-06-17T10:56:10.483Z,32.72
2018-06-17T10:58:40.807Z,32.81
2018-06-17T11:01:10.060Z,33.01
2018-06-17T11:03:38.639Z,33.50
2018-06-17T11:06:07.346Z,33.57
2018-06-17T11:08:35.923Z,33.44
2018-06-17T11:11:04.416Z,32.33
2018-06-17T11:13:34.229Z,32.71
2018-06-17T11:16:02.798Z,32.38
2018-06-17T11:18:31.477Z,31.62
2018-06-17T11:21:00.000Z,32.95
2018-06-17T11:23:28.524Z,32.63
2018-06-17T11:25:57.089Z,32.87
2018-06-17T11:28:25.633Z,32.18
2018-06-17T11:30:54.193Z,31.67
2018-06-17T11:33:22.713Z,30.83
2018-06-17T11:35:51.293Z,29.81
2018-06-17T11:38:19.808Z,29.53
2018-06-17T11:40:48.484Z,29.11
2018-06-17T11:43:17.043Z,28.86
2018-06-17T11:45:45.633Z,28.73
2018-06-17T11:48:14.247Z,28.35
2018-06-17T11:50:42.811Z,28.21
2018-06-17T11:53:11.429Z,27.99
2018-06-17T11:55:39.950Z,27.92
2018-06-17T11:58:09.081Z,27.72
2018-06-17T12:00:37.744Z,27.73
2018-06-17T12:03:06.253Z,27.82
2018-06-17T12:05:34.841Z,27.47
2018-06-17T12:08:03.394Z,27.63
2018-06-17T12:10:31.919Z,27.79
2018-06-17T12:13:00.523Z,27.81
2018-06-17T12:15:29.070Z,27.49
2018-06-17T12:17:57.633Z,27.59
2018-06-17T12:20:26.176Z,27.51
2018-06-17T12:22:54.711Z,27.66
2018-06-17T12:25:23.280Z,27.68
2018-06-17T12:27:51.856Z,27.96
2018-06-17T12:30:20.401Z,27.95
2018-06-17T12:32:48.941Z,27.98
2018-06-17T12:35:17.525Z,28.17
2018-06-17T12:37:46.119Z,28.22
2018-06-17T12:40:14.657Z,28.85
2018-06-17T12:42:43.214Z,29.22
2018-06-17T12:45:11.746Z,29.68
2018-06-17T12:47:40.317Z,29.87
2018-06-17T12:50:08.884Z,29.87
2018-06-17T12:52:37.432Z,29.69
2018-06-17T12:55:06.071Z,29.31
2018-06-17T12:57:34.647Z,29.51
2018-06-17T13:00:03.229Z,29.51
2018-06-17T13:02:31.759Z,29.34
2018-06-17T13:05:00.337Z,29.27
2018-06-17T13:07:28.843Z,29.14
2018-06-17T13:09:57.373Z,29.10
2018-06-17T13:12:25.936Z,29.17
2018-06-17T13:14:54.442Z,29.08
2018-06-17T13:17:22.996Z,28.65
2018-06-17T13:19:51.572Z,28.32
2018-06-17T13:22:20.161Z,28.44
2018-06-17T13:24:48.689Z,28.27
2018-06-17T13:27:17.225Z,28.17
2018-06-17T13:29:45.813Z,28.02
2018-06-17T13:32:14.667Z,28.08
2018-06-17T13:34:43.289Z,27.93
2018-06-17T13:37:12.026Z,27.73
2018-06-17T13:39:40.598Z,27.76
2018-06-17T13:42:09.186Z,27.79
2018-06-17T13:44:37.699Z,27.78
2018-06-17T13:47:06.441Z,27.87
2018-06-17T13:49:34.993Z,27.75
2018-06-17T13:52:03.558Z,27.76
2018-06-17T13:54:32.156Z,27.82
2018-06-17T13:57:00.703Z,27.82
2018-06-17T13:59:29.255Z,27.78
2018-06-17T14:01:57.776Z,28.09
2018-06-17T14:04:26.321Z,28.48
2018-06-17T14:06:54.885Z,28.96
2018-06-17T14:09:23.428Z,29.37
2018-06-17T14:11:51.987Z,29.28
2018-06-17T14:14:20.542Z,29.10
2018-06-17T14:16:49.132Z,29.05
2018-06-17T14:19:17.730Z,29.51
2018-06-17T14:21:46.288Z,29.32
2018-06-17T14:24:15.093Z,29.00
2018-06-17T14:26:43.682Z,28.90
2018-06-17T14:29:12.219Z,28.60
2018-06-17T14:31:40.741Z,28.29
2018-06-17T14:34:09.287Z,28.01
2018-06-17T14:36:37.902Z,27.75
2018-06-17T14:39:09.090Z,28.03
2018-06-17T14:41:37.637Z,28.23
2018-06-17T14:44:11.592Z,28.34
2018-06-17T14:46:45.487Z,28.40
2018-06-17T14:49:19.341Z,28.31
2018-06-17T14:51:53.166Z,28.21
2018-06-17T14:54:21.864Z,28.18
2018-06-17T14:56:50.399Z,28.17
2018-06-17T14:59:18.997Z,28.28
2018-06-17T15:01:47.574Z,28.03
2018-06-17T15:04:16.148Z,28.25
2018-06-17T15:06:44.642Z,28.48
2018-06-17T15:09:13.182Z,28.62
2018-06-17T15:11:41.682Z,28.77
2018-06-17T15:14:10.197Z,28.73
2018-06-17T15:16:38.807Z,28.44
2018-06-17T15:19:07.385Z,28.08
2018-06-17T15:21:35.947Z,27.65
2018-06-17T15:24:04.570Z,27.49
2018-06-17T15:26:33.343Z,27.01
2018-06-17T15:29:01.989Z,26.69
2018-06-17T15:31:35.913Z,26.64
2018-06-17T15:34:09.790Z,26.73
2018-06-17T15:36:43.728Z,26.69
2018-06-17T15:39:17.625Z,26.60
2018-06-17T15:41:47.172Z,26.51
2018-06-17T15:44:15.825Z,26.46
2018-06-17T15:46:44.460Z,26.44
2018-06-17T15:49:13.075Z,26.31
2018-06-17T15:51:41.613Z,26.28
2018-06-17T15:54:10.204Z,26.31
2018-06-17T15:56:38.842Z,26.45
2018-06-17T15:59:07.783Z,26.62
2018-06-17T16:01:37.075Z,26.61
2018-06-17T16:04:06.494Z,26.55
2018-06-17T16:06:35.480Z,26.45
2018-06-17T16:09:06.468Z,26.27
2018-06-17T16:11:38.112Z,26.18
2018-06-17T16:15:13.541Z,25.92
2018-06-17T16:17:47.334Z,25.76
2018-06-17T16:20:21.234Z,25.56
2018-06-17T16:22:49.818Z,25.37
2018-06-17T16:25:18.408Z,25.16
2018-06-17T16:27:47.089Z,25.24
2018-06-17T16:30:15.640Z,25.19
2018-06-17T16:32:44.226Z,25.19
2018-06-17T16:35:13.497Z,25.13
2018-06-17T16:37:42.073Z,25.08
2018-06-17T16:40:10.779Z,25.11
2018-06-17T16:42:39.321Z,25.00
2018-06-17T16:45:08.053Z,25.02
2018-06-17T16:47:36.661Z,25.00
2018-06-17T16:50:05.449Z,25.04
2018-06-17T16:52:39.330Z,24.84
2018-06-17T16:55:13.219Z,24.66
2018-06-17T16:57:46.980Z,24.60
2018-06-17T17:00:19.131Z,24.48
2018-06-17T17:02:48.244Z,24.40
2018-06-17T17:05:17.112Z,24.39
2018-06-17T17:07:45.923Z,24.42
2018-06-17T17:10:14.425Z,24.41
2018-06-17T17:12:42.928Z,24.46
2018-06-17T17:15:11.495Z,24.47
2018-06-17T17:17:40.035Z,24.45
2018-06-17T17:20:08.574Z,24.37
2018-06-17T17:22:37.185Z,24.22
2018-06-17T17:25:05.702Z,24.10
2018-06-17T17:27:34.212Z,23.93
2018-06-17T17:30:02.767Z,23.75
2018-06-17T17:32:36.577Z,23.71
2018-06-17T17:35:10.486Z,23.68
2018-06-17T17:37:44.276Z,23.58
2018-06-17T17:40:18.184Z,23.49
2018-06-17T17:42:46.689Z,23.47
2018-06-17T17:45:23.916Z,23.44
2018-06-17T17:47:52.450Z,23.43
2018-06-17T17:50:21.001Z,23.31
2018-06-17T17:52:49.554Z,23.21
2018-06-17T17:55:18.285Z,23.13
2018-06-17T17:57:47.575Z,23.11
2018-06-17T18:00:16.548Z,23.05
2018-06-17T18:02:45.498Z,22.99
2018-06-17T18:05:14.341Z,22.92
2018-06-17T18:07:43.029Z,22.88
2018-06-17T18:10:11.734Z,22.86
2018-06-17T18:12:40.474Z,22.87
2018-06-17T18:15:09.154Z,22.87
2018-06-17T18:17:39.153Z,22.83
2018-06-17T18:20:09.503Z,22.77
2018-06-17T18:22:39.451Z,22.66
2018-06-17T18:25:13.452Z,22.62
2018-06-17T18:27:47.255Z,22.53
2018-06-17T18:30:21.173Z,22.47
2018-06-17T18:32:56.006Z,22.41
2018-06-17T18:35:29.985Z,22.38
2018-06-17T18:38:00.747Z,22.34
2018-06-17T18:40:29.745Z,22.27
2018-06-17T18:42:58.391Z,22.20
2018-06-17T18:45:27.195Z,22.16
2018-06-17T18:47:55.857Z,22.12
2018-06-17T18:50:24.582Z,22.09
2018-06-17T18:52:53.205Z,22.03
2018-06-17T18:55:22.007Z,22.00
2018-06-17T18:57:50.730Z,21.98
2018-06-17T19:00:19.512Z,21.94
2018-06-17T19:02:48.609Z,21.94
2018-06-17T19:05:17.706Z,21.87
2018-06-17T19:07:47.016Z,21.84
2018-06-17T19:10:21.404Z,21.80
2018-06-17T19:12:55.565Z,21.74
2018-06-17T19:15:29.471Z,21.68
2018-06-17T19:18:09.786Z,21.64
2018-06-17T19:20:39.966Z,21.58
2018-06-17T19:23:08.651Z,21.55
2018-06-17T19:25:38.081Z,21.50
2018-06-17T19:28:07.793Z,21.49
2018-06-17T19:30:36.467Z,21.45
2018-06-17T19:33:05.294Z,21.42
2018-06-17T19:35:34.815Z,21.38
2018-06-17T19:38:03.632Z,21.34
2018-06-17T19:40:32.836Z,21.33
2018-06-17T19:43:02.096Z,21.30
2018-06-17T19:45:31.675Z,21.27
2018-06-17T19:48:00.598Z,21.27
2018-06-17T19:50:35.134Z,21.25
2018-06-17T19:53:09.283Z,21.22
2018-06-17T19:55:43.539Z,21.20
2018-06-17T19:58:18.418Z,21.15
2018-06-17T20:00:49.749Z,21.10
2018-06-17T20:03:18.468Z,21.07
2018-06-17T20:05:47.827Z,21.04
2018-06-17T20:08:17.272Z,20.99
2018-06-17T20:10:46.302Z,20.97
2018-06-17T20:13:15.162Z,20.91
2018-06-17T20:15:44.206Z,20.88
2018-06-17T20:18:13.148Z,20.85
2018-06-17T20:20:41.951Z,20.81
2018-06-17T20:23:10.946Z,20.79
2018-06-17T20:25:39.792Z,20.73
2018-06-17T20:28:08.719Z,20.69
2018-06-17T20:30:37.548Z,20.65
2018-06-17T20:33:11.669Z,20.63
2018-06-17T20:35:45.538Z,20.60
2018-06-17T20:38:19.783Z,20.55
2018-06-17T20:40:54.052Z,20.51
2018-06-17T20:43:28.241Z,20.48
2018-06-17T20:45:57.507Z,20.43
2018-06-17T20:48:26.329Z,20.40
2018-06-17T20:50:55.022Z,20.38
2018-06-17T20:53:23.885Z,20.34
2018-06-17T20:55:52.856Z,20.33
2018-06-17T20:58:21.555Z,20.29
2018-06-17T21:00:50.236Z,20.26
2018-06-17T21:03:18.888Z,20.23
2018-06-17T21:05:47.793Z,20.21
2018-06-17T21:08:16.517Z,20.17
2018-06-17T21:10:45.286Z,20.16
2018-06-17T21:13:14.147Z,20.14
2018-06-17T21:15:42.767Z,20.11
2018-06-17T21:18:11.573Z,20.08
2018-06-17T21:20:45.238Z,20.05
2018-06-17T21:23:19.110Z,20.03
2018-06-17T21:25:52.895Z,20.02
2018-06-17T21:28:21.606Z,19.98
2018-06-17T21:30:50.257Z,19.97
2018-06-17T21:33:19.074Z,19.96
2018-06-17T21:35:47.674Z,19.93
2018-06-17T21:38:16.370Z,19.92
2018-06-17T21:40:45.049Z,19.89
2018-06-17T21:43:13.706Z,19.88
2018-06-17T21:45:42.340Z,19.87
2018-06-17T21:48:11.122Z,19.83
2018-06-17T21:50:39.862Z,19.78
2018-06-17T21:53:08.465Z,19.76
2018-06-17T21:55:37.415Z,19.73
2018-06-17T21:58:06.462Z,19.71
2018-06-17T22:00:35.174Z,19.68
2018-06-17T22:03:03.988Z,19.65
2018-06-17T22:05:32.584Z,19.62
2018-06-17T22:08:06.519Z,19.62
2018-06-17T22:10:40.564Z,19.59
2018-06-17T22:13:09.491Z,19.57
2018-06-17T22:15:43.367Z,19.57
2018-06-17T22:18:12.133Z,19.55
2018-06-17T22:20:40.660Z,19.59
2018-06-17T22:23:09.199Z,19.60
2018-06-17T22:25:37.757Z,19.49
2018-06-17T22:28:06.293Z,19.44
2018-06-17T22:30:34.863Z,19.39
2018-06-17T22:33:03.401Z,19.33
2018-06-17T22:35:31.934Z,19.24
2018-06-17T22:38:00.441Z,19.19
2018-06-17T22:40:29.109Z,19.13
2018-06-17T22:42:57.677Z,19.06
2018-06-17T22:45:26.183Z,19.03
2018-06-17T22:47:59.729Z,18.99
2018-06-17T22:50:28.571Z,19.02
2018-06-17T22:53:08.272Z,18.97
2018-06-17T22:55:36.909Z,18.97
2018-06-17T22:58:10.578Z,18.94
2018-06-17T23:00:44.483Z,18.94
2018-06-17T23:03:18.333Z,18.94
2018-06-17T23:05:52.049Z,18.93
2018-06-17T23:08:25.873Z,18.92
2018-06-17T23:10:54.403Z,18.90
2018-06-17T23:13:22.999Z,18.87
2018-06-17T23:15:51.537Z,18.87
2018-06-17T23:18:20.065Z,18.87
2018-06-17T23:20:48.606Z,18.83
2018-06-17T23:23:17.238Z,18.82
2018-06-17T23:25:45.816Z,18.79
2018-06-17T23:28:14.512Z,18.78
2018-06-17T23:30:43.124Z,18.74
2018-06-17T23:33:11.682Z,18.71
2018-06-17T23:35:40.765Z,18.69
2018-06-17T23:38:09.375Z,18.66
2018-06-17T23:40:38.017Z,18.65
2018-06-17T23:43:06.731Z,18.67
2018-06-17T23:45:35.490Z,18.67
2018-06-17T23:48:09.305Z,18.66
2018-06-17T23:50:43.020Z,18.64
2018-06-17T23:55:24.451Z,18.63
2018-06-17T23:57:53.049Z,18.61
